createdAt,value
2017-10-06T00:01:23.444Z,9.10
2017-10-06T00:03:50.923Z,9.10
2017-10-06T00:06:19.139Z,9.10
2017-10-06T00:08:46.612Z,9.10
2017-10-06T00:11:14.078Z,9.10
2017-10-06T00:13:41.556Z,9.10
2017-10-06T00:16:09.861Z,8.90
2017-10-06T00:18:37.302Z,8.90
2017-10-06T00:21:04.779Z,9.00
2017-10-06T00:23:32.237Z,9.00
2017-10-06T00:25:59.703Z,9.00
2017-10-06T00:28:27.179Z,9.00
2017-10-06T00:30:54.651Z,9.00
2017-10-06T00:33:22.890Z,8.90
2017-10-06T00:35:50.347Z,8.90
2017-10-06T00:38:17.813Z,8.90
2017-10-06T00:40:45.290Z,8.90
2017-10-06T00:43:12.747Z,8.90
2017-10-06T00:45:41.736Z,8.80
2017-10-06T00:48:09.208Z,8.80
2017-10-06T00:50:37.431Z,8.80
2017-10-06T00:53:04.907Z,8.80
2017-10-06T00:55:32.367Z,8.70
2017-10-06T00:57:59.850Z,8.70
2017-10-06T01:00:28.072Z,8.60
2017-10-06T01:02:55.552Z,8.60
2017-10-06T01:05:23.015Z,8.70
2017-10-06T01:07:50.471Z,8.70
2017-10-06T01:10:17.939Z,8.60
2017-10-06T01:12:45.392Z,8.70
2017-10-06T01:15:12.875Z,8.60
2017-10-06T01:17:41.095Z,8.60
2017-10-06T01:20:08.637Z,8.60
2017-10-06T01:22:36.092Z,8.60
2017-10-06T01:25:03.584Z,8.60
2017-10-06T01:27:31.040Z,8.60
2017-10-06T01:29:58.510Z,8.60
2017-10-06T01:32:25.987Z,8.50
2017-10-06T01:34:54.216Z,8.50
2017-10-06T01:37:21.703Z,8.50
2017-10-06T01:39:49.151Z,8.60
2017-10-06T01:42:16.631Z,8.60
2017-10-06T01:44:44.855Z,8.40
2017-10-06T01:47:12.342Z,8.40
2017-10-06T01:49:39.824Z,8.40
2017-10-06T01:52:08.061Z,8.40
2017-10-06T01:54:35.527Z,8.40
2017-10-06T01:57:03.003Z,8.50
2017-10-06T01:59:31.251Z,8.60
2017-10-06T02:01:58.696Z,8.60
2017-10-06T02:04:26.167Z,8.70
2017-10-06T02:06:53.633Z,8.80
2017-10-06T02:09:21.110Z,8.80
2017-10-06T02:11:49.337Z,8.90
2017-10-06T02:14:16.803Z,8.90
2017-10-06T02:16:44.303Z,9.00
2017-10-06T02:19:12.523Z,9.10
2017-10-06T02:21:39.988Z,9.10
2017-10-06T02:24:07.463Z,9.10
2017-10-06T02:26:34.943Z,9.20
2017-10-06T02:29:03.185Z,9.20
2017-10-06T02:31:31.407Z,9.20
2017-10-06T02:33:58.891Z,9.20
2017-10-06T02:36:26.350Z,9.10
2017-10-06T02:38:53.838Z,9.10
2017-10-06T02:41:22.056Z,9.00
2017-10-06T02:43:49.523Z,9.00
2017-10-06T02:46:16.995Z,9.00
2017-10-06T02:48:44.472Z,8.90
2017-10-06T02:51:11.969Z,8.90
2017-10-06T02:53:40.188Z,8.90
2017-10-06T02:56:07.666Z,8.80
2017-10-06T02:58:35.912Z,8.80
2017-10-06T03:01:03.388Z,8.80
2017-10-06T03:03:30.847Z,8.80
2017-10-06T03:05:58.319Z,8.70
2017-10-06T03:08:25.796Z,8.80
2017-10-06T03:10:54.016Z,9.10
2017-10-06T03:13:21.480Z,9.00
2017-10-06T03:15:48.949Z,9.10
2017-10-06T03:18:16.407Z,9.10
2017-10-06T03:20:43.888Z,9.30
2017-10-06T03:23:12.108Z,9.30
2017-10-06T03:25:39.585Z,9.30
2017-10-06T03:28:07.077Z,9.30
2017-10-06T03:30:35.299Z,9.40
2017-10-06T03:33:02.779Z,9.40
2017-10-06T03:35:30.240Z,9.40
2017-10-06T03:37:59.208Z,9.30
2017-10-06T03:40:26.691Z,9.30
2017-10-06T03:42:54.156Z,9.40
2017-10-06T03:45:21.608Z,9.40
2017-10-06T03:47:49.086Z,9.40
2017-10-06T03:50:17.300Z,9.50
2017-10-06T03:52:44.755Z,9.40
2017-10-06T03:55:12.239Z,9.50
2017-10-06T03:57:39.734Z,9.50
2017-10-06T04:00:07.952Z,9.50
2017-10-06T04:02:35.412Z,9.50
2017-10-06T04:05:02.882Z,9.50
2017-10-06T04:07:30.340Z,9.50
2017-10-06T04:09:57.817Z,9.50
2017-10-06T04:12:25.290Z,9.50
2017-10-06T04:14:53.514Z,9.50
2017-10-06T04:17:20.988Z,9.50
2017-10-06T04:19:48.461Z,9.40
2017-10-06T04:22:16.704Z,9.40
2017-10-06T04:24:44.174Z,9.30
2017-10-06T04:27:11.620Z,9.30
2017-10-06T04:29:39.096Z,9.30
2017-10-06T04:32:06.559Z,9.30
2017-10-06T04:34:34.024Z,9.30
2017-10-06T04:37:02.243Z,9.40
2017-10-06T04:39:29.715Z,9.40
2017-10-06T04:41:57.174Z,9.50
2017-10-06T04:44:24.631Z,9.50
2017-10-06T04:46:52.092Z,9.50
2017-10-06T04:49:19.570Z,9.50
2017-10-06T04:51:47.796Z,9.50
2017-10-06T04:54:15.272Z,9.50
2017-10-06T04:56:42.732Z,9.50
2017-10-06T04:59:10.192Z,9.50
2017-10-06T05:01:37.674Z,9.50
2017-10-06T05:04:05.119Z,9.50
2017-10-06T05:06:34.575Z,9.50
2017-10-06T05:09:02.051Z,9.50
2017-10-06T05:11:29.511Z,9.50
2017-10-06T05:13:56.980Z,9.50
2017-10-06T05:16:24.446Z,9.40
2017-10-06T05:18:51.912Z,9.40
2017-10-06T05:21:19.374Z,9.40
2017-10-06T05:23:46.850Z,9.30
2017-10-06T05:26:14.327Z,9.30
2017-10-06T05:28:41.783Z,9.30
2017-10-06T05:31:09.268Z,9.20
2017-10-06T05:33:37.951Z,9.20
2017-10-06T05:36:05.447Z,9.10
2017-10-06T05:38:33.688Z,9.00
2017-10-06T05:41:01.163Z,9.00
2017-10-06T05:43:29.409Z,8.90
2017-10-06T05:45:56.879Z,8.90
2017-10-06T05:48:24.375Z,8.90
2017-10-06T05:50:52.591Z,8.90
2017-10-06T05:53:20.081Z,8.90
2017-10-06T05:55:47.563Z,8.90
2017-10-06T05:58:15.807Z,9.00
2017-10-06T06:00:44.045Z,9.00
2017-10-06T06:03:12.516Z,9.00
2017-10-06T06:05:40.033Z,9.00
2017-10-06T06:08:07.487Z,9.00
2017-10-06T06:10:34.948Z,9.00
2017-10-06T06:13:03.190Z,9.00
2017-10-06T06:15:30.656Z,9.00
2017-10-06T06:17:58.140Z,9.00
2017-10-06T06:20:26.363Z,9.00
2017-10-06T06:22:53.824Z,9.00
2017-10-06T06:25:21.308Z,9.00
2017-10-06T06:27:48.759Z,9.00
2017-10-06T06:30:16.232Z,9.10
2017-10-06T06:32:43.696Z,9.20
2017-10-06T06:35:11.940Z,9.50
2017-10-06T06:37:39.401Z,9.50
2017-10-06T06:40:06.885Z,9.60
2017-10-06T06:42:35.123Z,9.90
2017-10-06T06:45:02.596Z,9.90
2017-10-06T06:47:30.063Z,9.90
2017-10-06T06:49:57.532Z,9.90
2017-10-06T06:52:25.755Z,10.00
2017-10-06T06:54:53.233Z,9.90
2017-10-06T06:57:20.701Z,9.90
2017-10-06T06:59:48.961Z,10.00
2017-10-06T07:02:16.418Z,9.90
2017-10-06T07:04:43.882Z,10.00
2017-10-06T07:07:11.351Z,10.20
2017-10-06T07:09:38.831Z,10.20
2017-10-06T07:12:06.308Z,10.40
2017-10-06T07:14:33.772Z,10.60
2017-10-06T07:17:01.247Z,10.70
2017-10-06T07:19:28.708Z,10.70
2017-10-06T07:21:56.183Z,10.80
2017-10-06T07:24:23.660Z,10.80
2017-10-06T07:26:51.888Z,10.60
2017-10-06T07:29:19.358Z,10.60
2017-10-06T07:31:46.836Z,10.60
2017-10-06T07:34:14.295Z,10.50
2017-10-06T07:36:42.539Z,10.70
2017-10-06T07:39:10.017Z,10.70
2017-10-06T07:41:38.240Z,10.90
2017-10-06T07:44:05.720Z,10.90
2017-10-06T07:46:33.180Z,11.00
2017-10-06T07:49:00.675Z,11.10
2017-10-06T07:51:28.900Z,11.30
2017-10-06T07:53:56.444Z,11.30
2017-10-06T07:56:23.901Z,11.30
2017-10-06T07:58:51.376Z,11.30
2017-10-06T08:01:18.851Z,11.30
2017-10-06T08:03:46.321Z,11.50
2017-10-06T08:06:13.783Z,11.80
2017-10-06T08:08:41.256Z,11.80
2017-10-06T08:11:09.487Z,11.70
2017-10-06T08:13:36.972Z,11.70
2017-10-06T08:16:04.457Z,11.90
2017-10-06T08:18:31.933Z,12.20
2017-10-06T08:20:59.423Z,12.50
2017-10-06T08:23:26.887Z,12.60
2017-10-06T08:25:54.348Z,12.60
2017-10-06T08:28:21.823Z,12.70
2017-10-06T08:30:50.047Z,12.70
2017-10-06T08:33:17.532Z,12.60
2017-10-06T08:35:45.008Z,12.70
2017-10-06T08:38:13.247Z,12.40
2017-10-06T08:40:40.731Z,12.40
2017-10-06T08:43:08.209Z,12.10
2017-10-06T08:45:36.431Z,11.90
2017-10-06T08:48:04.479Z,11.90
2017-10-06T08:50:31.973Z,11.80
2017-10-06T08:52:59.455Z,11.70
2017-10-06T08:55:27.703Z,11.50
2017-10-06T08:57:55.945Z,11.50
2017-10-06T09:00:23.497Z,11.50
2017-10-06T09:02:50.982Z,11.40
2017-10-06T09:05:18.444Z,11.50
2017-10-06T09:07:45.927Z,11.50
2017-10-06T09:10:14.164Z,11.50
2017-10-06T09:12:41.621Z,11.50
2017-10-06T09:15:09.095Z,11.50
2017-10-06T09:17:36.583Z,11.50
2017-10-06T09:20:04.812Z,11.60
2017-10-06T09:22:32.297Z,11.60
2017-10-06T09:24:59.756Z,11.60
2017-10-06T09:27:27.235Z,11.50
2017-10-06T09:29:55.479Z,11.70
2017-10-06T09:32:22.940Z,11.70
2017-10-06T09:34:50.424Z,11.80
2017-10-06T09:37:17.900Z,11.90
2017-10-06T09:39:45.363Z,11.80
2017-10-06T09:42:12.841Z,11.60
2017-10-06T09:44:40.304Z,11.50
2017-10-06T09:47:07.790Z,11.50
2017-10-06T09:49:36.016Z,11.40
2017-10-06T09:52:03.497Z,11.40
2017-10-06T09:54:31.749Z,11.50
2017-10-06T09:56:59.241Z,11.50
2017-10-06T09:59:26.747Z,11.80
2017-10-06T10:01:54.211Z,12.10
2017-10-06T10:04:21.671Z,12.80
2017-10-06T10:06:49.150Z,13.60
2017-10-06T10:09:16.615Z,14.00
2017-10-06T10:11:44.100Z,14.00
2017-10-06T10:14:12.324Z,14.50
2017-10-06T10:16:39.804Z,14.50
2017-10-06T10:19:07.284Z,15.10
2017-10-06T10:21:35.532Z,19.00
2017-10-06T10:24:03.004Z,19.00
2017-10-06T10:26:30.463Z,18.80
2017-10-06T10:28:58.713Z,18.40
2017-10-06T10:31:26.183Z,18.30
2017-10-06T10:33:53.659Z,17.40
2017-10-06T10:36:21.889Z,16.90
2017-10-06T10:38:49.368Z,16.90
2017-10-06T10:41:16.836Z,17.20
2017-10-06T10:43:45.092Z,16.30
2017-10-06T10:46:12.556Z,16.30
2017-10-06T10:48:40.039Z,16.60
2017-10-06T10:51:08.298Z,16.60
2017-10-06T10:53:35.765Z,16.60
2017-10-06T10:56:04.032Z,15.50
2017-10-06T10:58:31.503Z,15.50
2017-10-06T11:00:59.751Z,15.30
2017-10-06T11:03:27.232Z,15.20
2017-10-06T11:05:55.479Z,14.90
2017-10-06T11:08:22.960Z,14.80
2017-10-06T11:10:51.210Z,15.40
2017-10-06T11:13:18.708Z,15.40
2017-10-06T11:15:46.181Z,16.30
2017-10-06T11:18:13.676Z,17.00
2017-10-06T11:20:41.165Z,16.70
2017-10-06T11:23:09.400Z,15.50
2017-10-06T11:25:36.888Z,15.50
2017-10-06T11:28:05.135Z,14.50
2017-10-06T11:30:32.612Z,14.60
2017-10-06T11:33:00.102Z,14.10
2017-10-06T11:35:27.572Z,13.80
2017-10-06T11:37:55.052Z,13.70
2017-10-06T11:40:22.523Z,13.40
2017-10-06T11:42:50.006Z,13.30
2017-10-06T11:45:18.258Z,12.80
2017-10-06T11:47:45.748Z,12.80
2017-10-06T11:50:14.096Z,11.40
2017-10-06T11:52:43.088Z,10.50
2017-10-06T11:55:10.555Z,10.50
2017-10-06T11:57:38.030Z,9.80
2017-10-06T12:00:06.275Z,9.70
2017-10-06T12:02:35.260Z,10.00
2017-10-06T12:05:02.740Z,9.90
2017-10-06T12:07:30.228Z,10.20
2017-10-06T12:09:57.700Z,10.30
2017-10-06T12:12:25.184Z,10.30
2017-10-06T12:14:52.704Z,10.50
2017-10-06T12:17:20.231Z,10.60
2017-10-06T12:19:48.468Z,10.90
2017-10-06T12:22:16.031Z,10.90
2017-10-06T12:24:43.504Z,11.00
2017-10-06T12:27:10.982Z,11.20
2017-10-06T12:29:39.225Z,11.70
2017-10-06T12:32:06.852Z,11.70
2017-10-06T12:34:34.431Z,12.10
2017-10-06T12:37:02.185Z,13.40
2017-10-06T12:39:30.147Z,14.90
2017-10-06T12:41:57.773Z,15.70
2017-10-06T12:44:25.230Z,16.90
2017-10-06T12:46:52.707Z,16.80
2017-10-06T12:49:20.295Z,16.50
2017-10-06T12:51:47.768Z,16.40
2017-10-06T12:54:15.268Z,16.90
2017-10-06T12:56:43.547Z,18.40
2017-10-06T12:59:11.174Z,18.40
2017-10-06T13:01:38.688Z,18.80
2017-10-06T13:04:06.262Z,18.80
2017-10-06T13:06:33.979Z,18.70
2017-10-06T13:09:01.671Z,18.40
2017-10-06T13:11:29.306Z,18.60
2017-10-06T13:13:57.032Z,18.20
2017-10-06T13:16:24.568Z,18.80
2017-10-06T13:18:52.043Z,19.10
2017-10-06T13:21:19.624Z,19.20
2017-10-06T13:23:47.115Z,19.20
2017-10-06T13:26:14.587Z,19.00
2017-10-06T13:28:42.080Z,18.10
2017-10-06T13:31:09.543Z,17.70
2017-10-06T13:33:37.033Z,17.90
2017-10-06T13:36:04.494Z,17.80
2017-10-06T13:38:31.968Z,17.80
2017-10-06T13:40:59.440Z,17.80
2017-10-06T13:43:26.932Z,17.80
2017-10-06T13:45:55.176Z,17.80
2017-10-06T13:48:22.632Z,17.80
2017-10-06T13:50:50.116Z,17.60
2017-10-06T13:53:18.360Z,17.00
2017-10-06T13:55:45.851Z,17.00
2017-10-06T13:58:13.316Z,16.70
2017-10-06T14:00:41.561Z,16.60
2017-10-06T14:03:09.037Z,16.60
2017-10-06T14:05:37.384Z,16.00
2017-10-06T14:08:05.674Z,15.90
2017-10-06T14:10:33.934Z,15.70
2017-10-06T14:13:01.652Z,15.70
2017-10-06T14:15:29.190Z,15.70
2017-10-06T14:17:56.952Z,15.30
2017-10-06T14:20:25.304Z,15.20
2017-10-06T14:22:52.962Z,15.20
2017-10-06T14:25:20.447Z,15.60
2017-10-06T14:27:48.859Z,15.80
2017-10-06T14:30:16.446Z,15.70
2017-10-06T14:32:44.100Z,15.40
2017-10-06T14:35:11.996Z,15.20
2017-10-06T14:37:39.969Z,15.20
2017-10-06T14:40:08.306Z,15.00
2017-10-06T14:42:35.803Z,14.90
2017-10-06T14:45:03.332Z,14.80
2017-10-06T14:47:30.888Z,14.50
2017-10-06T14:49:58.526Z,14.20
2017-10-06T14:52:26.027Z,14.00
2017-10-06T14:54:53.493Z,13.90
2017-10-06T14:57:20.971Z,13.90
2017-10-06T14:59:48.464Z,14.10
2017-10-06T15:02:15.940Z,14.20
2017-10-06T15:04:43.407Z,14.30
2017-10-06T15:07:10.910Z,14.30
2017-10-06T15:09:38.381Z,14.30
2017-10-06T15:12:05.863Z,14.20
2017-10-06T15:14:33.324Z,14.00
2017-10-06T15:17:00.808Z,13.90
2017-10-06T15:19:28.299Z,13.70
2017-10-06T15:21:55.759Z,13.50
2017-10-06T15:24:23.232Z,13.30
2017-10-06T15:26:50.713Z,13.20
2017-10-06T15:29:18.187Z,13.20
2017-10-06T15:31:45.676Z,13.30
2017-10-06T15:34:13.167Z,13.30
2017-10-06T15:36:40.637Z,13.30
2017-10-06T15:39:08.110Z,13.30
2017-10-06T15:41:35.616Z,13.30
2017-10-06T15:44:03.079Z,13.30
2017-10-06T15:46:30.573Z,13.30
2017-10-06T15:48:58.051Z,13.20
2017-10-06T15:51:26.272Z,13.10
2017-10-06T15:53:53.774Z,13.00
2017-10-06T15:56:21.233Z,13.00
2017-10-06T15:58:49.473Z,12.70
2017-10-06T16:01:16.964Z,12.70
2017-10-06T16:03:45.211Z,12.60
2017-10-06T16:06:12.682Z,12.60
2017-10-06T16:08:40.192Z,12.60
2017-10-06T16:11:08.431Z,12.60
2017-10-06T16:13:36.657Z,12.70
2017-10-06T16:16:04.148Z,12.70
2017-10-06T16:18:31.608Z,12.70
2017-10-06T16:20:59.092Z,12.70
2017-10-06T16:23:26.556Z,12.70
2017-10-06T16:25:54.028Z,12.70
2017-10-06T16:28:21.538Z,12.60
2017-10-06T16:30:49.012Z,12.60
2017-10-06T16:33:17.259Z,12.50
2017-10-06T16:35:44.735Z,12.40
2017-10-06T16:38:12.969Z,12.30
2017-10-06T16:40:40.449Z,12.30
2017-10-06T16:43:07.924Z,12.20
2017-10-06T16:45:36.169Z,12.10
2017-10-06T16:48:03.651Z,12.10
2017-10-06T16:50:31.887Z,12.10
2017-10-06T16:52:59.347Z,12.00
2017-10-06T16:55:26.841Z,12.00
2017-10-06T16:57:55.079Z,11.80
2017-10-06T17:00:22.552Z,11.80
2017-10-06T17:02:50.039Z,11.80
2017-10-06T17:05:18.271Z,11.60
2017-10-06T17:07:45.779Z,11.60
2017-10-06T17:10:14.024Z,11.50
2017-10-06T17:12:41.503Z,11.50
2017-10-06T17:15:09.744Z,11.60
2017-10-06T17:17:37.199Z,11.50
2017-10-06T17:20:04.687Z,11.50
2017-10-06T17:22:32.911Z,11.30
2017-10-06T17:25:00.389Z,11.30
2017-10-06T17:27:27.893Z,11.30
2017-10-06T17:29:55.350Z,11.20
2017-10-06T17:32:22.833Z,11.20
2017-10-06T17:34:50.319Z,11.20
2017-10-06T17:37:17.813Z,11.30
2017-10-06T17:39:46.056Z,11.30
2017-10-06T17:42:14.306Z,11.40
2017-10-06T17:44:41.788Z,11.40
2017-10-06T17:47:09.247Z,11.40
2017-10-06T17:49:36.727Z,11.40
2017-10-06T17:52:04.974Z,11.40
2017-10-06T17:54:32.464Z,11.40
2017-10-06T17:57:00.692Z,11.40
2017-10-06T17:59:28.191Z,11.30
2017-10-06T18:01:56.438Z,11.20
2017-10-06T18:04:23.908Z,11.20
2017-10-06T18:06:52.156Z,11.10
2017-10-06T18:09:19.641Z,11.10
2017-10-06T18:11:47.909Z,11.00
2017-10-06T18:14:15.398Z,11.00
2017-10-06T18:16:42.879Z,10.90
2017-10-06T18:19:10.354Z,10.90
2017-10-06T18:21:37.830Z,10.80
2017-10-06T18:24:05.316Z,10.80
2017-10-06T18:26:33.545Z,10.60
2017-10-06T18:29:01.054Z,10.60
2017-10-06T18:31:28.629Z,10.60
2017-10-06T18:33:56.105Z,10.60
2017-10-06T18:36:23.584Z,10.60
2017-10-06T18:38:51.079Z,10.70
2017-10-06T18:41:19.478Z,10.60
2017-10-06T18:43:47.144Z,10.60
2017-10-06T18:46:14.631Z,10.60
2017-10-06T18:48:42.209Z,10.50
2017-10-06T18:51:09.796Z,10.40
2017-10-06T18:53:38.179Z,10.40
2017-10-06T18:56:05.702Z,10.40
2017-10-06T18:58:33.174Z,10.30
2017-10-06T19:01:01.477Z,10.30
2017-10-06T19:03:29.056Z,10.20
2017-10-06T19:05:56.519Z,10.20
2017-10-06T19:08:24.030Z,10.20
2017-10-06T19:10:52.292Z,10.20
2017-10-06T19:13:20.840Z,10.10
2017-10-06T19:15:48.432Z,10.10
2017-10-06T19:18:16.228Z,10.10
2017-10-06T19:20:43.790Z,10.10
2017-10-06T19:23:11.277Z,10.10
2017-10-06T19:25:38.804Z,10.10
2017-10-06T19:28:06.313Z,10.10
2017-10-06T19:30:33.824Z,10.10
2017-10-06T19:33:01.448Z,10.10
2017-10-06T19:35:28.944Z,10.00
2017-10-06T19:37:56.434Z,10.00
2017-10-06T19:40:24.046Z,10.10
2017-10-06T19:42:51.671Z,10.10
2017-10-06T19:45:20.100Z,10.20
2017-10-06T19:47:47.818Z,10.20
2017-10-06T19:50:15.393Z,10.20
2017-10-06T19:52:43.720Z,10.30
2017-10-06T19:55:11.745Z,10.30
2017-10-06T19:57:39.280Z,10.30
2017-10-06T20:00:07.581Z,10.40
2017-10-06T20:02:35.110Z,10.40
2017-10-06T20:05:02.742Z,10.50
2017-10-06T20:07:31.544Z,10.60
2017-10-06T20:09:59.142Z,10.50
2017-10-06T20:12:27.393Z,10.60
2017-10-06T20:14:55.676Z,10.60
2017-10-06T20:17:24.094Z,10.60
2017-10-06T20:19:51.556Z,10.60
2017-10-06T20:22:20.791Z,10.40
2017-10-06T20:24:48.283Z,10.40
2017-10-06T20:27:15.747Z,10.30
2017-10-06T20:29:43.251Z,10.20
2017-10-06T20:32:10.766Z,10.20
2017-10-06T20:34:38.383Z,10.10
2017-10-06T20:37:05.865Z,10.00
2017-10-06T20:39:34.113Z,9.90
2017-10-06T20:42:01.587Z,9.90
2017-10-06T20:44:29.833Z,9.80
2017-10-06T20:46:57.296Z,9.80
2017-10-06T20:49:24.751Z,9.80
2017-10-06T20:51:53.766Z,9.70
2017-10-06T20:54:21.231Z,9.70
2017-10-06T20:56:49.475Z,9.60
2017-10-06T20:59:16.931Z,9.60
2017-10-06T21:01:44.392Z,9.60
2017-10-06T21:04:11.864Z,9.60
2017-10-06T21:06:40.104Z,9.60
2017-10-06T21:09:07.576Z,9.50
2017-10-06T21:11:35.824Z,9.50
2017-10-06T21:14:03.321Z,9.50
2017-10-06T21:16:30.804Z,9.50
2017-10-06T21:18:58.381Z,9.50
2017-10-06T21:21:25.848Z,9.50
2017-10-06T21:23:53.306Z,9.50
2017-10-06T21:26:20.783Z,9.60
2017-10-06T21:28:48.255Z,9.70
2017-10-06T21:31:15.748Z,9.80
2017-10-06T21:33:43.208Z,9.90
2017-10-06T21:36:10.683Z,10.00
2017-10-06T21:38:38.165Z,10.00
2017-10-06T21:41:05.636Z,10.10
2017-10-06T21:43:33.250Z,10.10
2017-10-06T21:46:00.709Z,10.10
2017-10-06T21:48:28.183Z,10.10
2017-10-06T21:50:55.679Z,10.10
2017-10-06T21:53:23.148Z,10.10
2017-10-06T21:55:51.376Z,10.10
2017-10-06T21:58:18.865Z,10.10
2017-10-06T22:00:47.092Z,10.10
2017-10-06T22:03:14.555Z,10.10
2017-10-06T22:05:42.039Z,10.10
2017-10-06T22:08:09.526Z,10.10
2017-10-06T22:10:37.787Z,10.10
2017-10-06T22:13:05.262Z,10.10
2017-10-06T22:15:33.508Z,10.10
2017-10-06T22:18:02.479Z,10.10
2017-10-06T22:20:29.979Z,10.10
2017-10-06T22:22:58.199Z,10.10
2017-10-06T22:25:25.671Z,10.10
2017-10-06T22:27:53.152Z,10.10
2017-10-06T22:30:20.627Z,10.20
2017-10-06T22:32:48.868Z,10.20
2017-10-06T22:35:17.104Z,10.20
2017-10-06T22:37:44.566Z,10.20
2017-10-06T22:40:12.046Z,10.20
2017-10-06T22:42:39.512Z,10.20
2017-10-06T22:45:06.983Z,10.20
2017-10-06T22:47:34.461Z,10.20
2017-10-06T22:50:02.695Z,10.30
2017-10-06T22:52:30.175Z,10.30
2017-10-06T22:54:58.412Z,10.20
2017-10-06T22:57:25.897Z,10.20
2017-10-06T22:59:53.359Z,10.20
2017-10-06T23:02:21.592Z,10.20
2017-10-06T23:04:49.068Z,10.20
2017-10-06T23:07:16.527Z,10.30
2017-10-06T23:09:43.985Z,10.20
2017-10-06T23:12:11.501Z,10.20
2017-10-06T23:14:38.970Z,10.20
2017-10-06T23:17:06.451Z,10.30
2017-10-06T23:19:33.903Z,10.30
2017-10-06T23:22:01.355Z,10.20
2017-10-06T23:24:30.311Z,10.20
2017-10-06T23:26:57.800Z,10.20
2017-10-06T23:29:25.268Z,10.10
2017-10-06T23:31:52.749Z,10.10
2017-10-06T23:34:20.225Z,10.10
2017-10-06T23:36:48.450Z,10.20
2017-10-06T23:39:15.930Z,10.20
2017-10-06T23:41:43.390Z,10.20
2017-10-06T23:44:11.623Z,10.20
2017-10-06T23:46:39.095Z,10.30
2017-10-06T23:49:06.567Z,10.30
2017-10-06T23:51:34.043Z,10.30
2017-10-06T23:54:02.267Z,10.30
2017-10-06T23:56:29.752Z,10.20
2017-10-06T23:58:58.084Z,10.30
